createdAt,value
2023-05-20T00:01:52.142Z,102316.91
2023-05-20T00:04:18.979Z,102346.06
2023-05-20T00:06:45.873Z,102344.56
2023-05-20T00:09:12.641Z,102344.50
2023-05-20T00:11:39.307Z,102341.69
2023-05-20T00:14:06.376Z,102344.13
2023-05-20T00:16:33.254Z,102324.97
2023-05-20T00:19:00.302Z,102343.16
2023-05-20T00:21:27.199Z,102339.09
2023-05-20T00:23:53.998Z,102341.38
2023-05-20T00:26:21.552Z,102335.44
2023-05-20T00:28:48.375Z,102333.78
2023-05-20T00:31:15.144Z,102326.84
2023-05-20T00:33:41.907Z,102318.50
2023-05-20T00:36:08.890Z,102326.97
2023-05-20T00:38:35.753Z,102323.81
2023-05-20T00:41:02.475Z,102313.53
2023-05-20T00:43:29.145Z,102318.47
2023-05-20T00:45:55.999Z,102325.31
2023-05-20T00:48:22.980Z,102290.25
2023-05-20T00:50:50.641Z,102316.63
2023-05-20T00:53:21.523Z,102317.41
2023-05-20T00:55:48.526Z,102305.28
2023-05-20T00:58:15.519Z,102293.84
2023-05-20T01:00:43.142Z,102311.25
2023-05-20T01:03:10.190Z,102299.81
2023-05-20T01:05:38.165Z,102308.25
2023-05-20T01:08:07.138Z,102300.66
2023-05-20T01:10:37.548Z,102301.03
2023-05-20T01:13:08.810Z,102301.97
2023-05-20T01:15:36.804Z,102305.72
2023-05-20T01:18:06.520Z,102292.41
2023-05-20T01:20:33.788Z,102292.69
2023-05-20T01:23:00.521Z,102295.28
2023-05-20T01:25:27.453Z,102276.09
2023-05-20T01:27:56.511Z,102293.31
2023-05-20T01:30:28.317Z,102293.44
2023-05-20T01:33:00.144Z,102292.75
2023-05-20T01:35:27.799Z,102289.41
2023-05-20T01:37:56.476Z,102293.63
2023-05-20T01:40:24.719Z,102297.94
2023-05-20T01:42:55.287Z,102279.97
2023-05-20T01:45:24.667Z,102281.78
2023-05-20T01:47:51.600Z,102271.97
2023-05-20T01:50:18.364Z,102281.44
2023-05-20T01:52:45.141Z,102279.69
2023-05-20T01:55:11.896Z,102258.13
2023-05-20T01:57:38.557Z,102270.16
2023-05-20T02:00:07.023Z,102276.25
2023-05-20T02:02:33.893Z,102270.25
2023-05-20T02:05:00.849Z,102272.00
2023-05-20T02:07:27.511Z,102264.13
2023-05-20T02:09:54.233Z,102262.13
2023-05-20T02:12:20.992Z,102269.13
2023-05-20T02:14:48.184Z,102260.69
2023-05-20T02:17:17.936Z,102272.06
2023-05-20T02:19:46.066Z,102255.34
2023-05-20T02:22:13.498Z,102252.19
2023-05-20T02:24:40.640Z,102256.56
2023-05-20T02:27:07.643Z,102258.53
2023-05-20T02:29:34.506Z,102264.63
2023-05-20T02:32:01.354Z,102247.34
2023-05-20T02:34:28.345Z,102248.53
2023-05-20T02:36:55.012Z,102250.22
2023-05-20T02:39:21.722Z,102243.84
2023-05-20T02:41:48.634Z,102254.25
2023-05-20T02:44:15.586Z,102255.13
2023-05-20T02:46:42.478Z,102252.28
2023-05-20T02:49:09.210Z,102226.50
2023-05-20T02:51:36.733Z,102250.47
2023-05-20T02:54:03.863Z,102249.00
2023-05-20T02:56:30.537Z,102235.38
2023-05-20T02:58:57.259Z,102244.16
2023-05-20T03:01:24.438Z,102236.03
2023-05-20T03:03:51.450Z,102240.94
2023-05-20T03:06:18.282Z,102239.66
2023-05-20T03:08:44.968Z,102237.16
2023-05-20T03:11:11.964Z,102217.84
2023-05-20T03:13:38.707Z,102221.19
2023-05-20T03:16:05.658Z,102235.03
2023-05-20T03:18:32.382Z,102224.84
2023-05-20T03:20:59.096Z,102222.88
2023-05-20T03:23:26.068Z,102219.63
2023-05-20T03:25:52.847Z,102224.03
2023-05-20T03:28:19.576Z,102199.72
2023-05-20T03:30:46.469Z,102194.09
2023-05-20T03:33:13.253Z,102210.97
2023-05-20T03:35:39.923Z,102214.38
2023-05-20T03:38:06.753Z,102217.00
2023-05-20T03:40:33.610Z,102219.28
2023-05-20T03:43:00.452Z,102212.00
2023-05-20T03:45:27.176Z,102211.94
2023-05-20T03:47:53.905Z,102206.41
2023-05-20T03:50:20.632Z,102215.84
2023-05-20T03:52:47.436Z,102213.31
2023-05-20T03:55:14.155Z,102224.44
2023-05-20T03:57:40.872Z,102233.44
2023-05-20T04:00:14.627Z,102222.50
2023-05-20T04:02:41.781Z,102214.63
2023-05-20T04:05:10.332Z,102211.03
2023-05-20T04:07:37.133Z,102212.91
2023-05-20T04:10:04.899Z,102214.56
2023-05-20T04:12:32.565Z,102208.06
2023-05-20T04:15:02.397Z,102192.25
2023-05-20T04:17:30.321Z,102185.69
2023-05-20T04:20:00.129Z,102207.34
2023-05-20T04:22:27.533Z,102205.53
2023-05-20T04:24:54.372Z,102209.00
2023-05-20T04:27:21.723Z,102194.00
2023-05-20T04:29:48.658Z,102192.91
2023-05-20T04:32:18.850Z,102204.22
2023-05-20T04:34:46.421Z,102202.53
2023-05-20T04:37:14.003Z,102205.22
2023-05-20T04:39:40.785Z,102200.84
2023-05-20T04:42:07.524Z,102195.59
2023-05-20T04:44:34.546Z,102202.16
2023-05-20T04:47:01.240Z,102195.38
2023-05-20T04:49:29.996Z,102206.84
2023-05-20T04:51:56.787Z,102207.47
2023-05-20T04:54:23.477Z,102196.94
2023-05-20T04:56:51.094Z,102204.81
2023-05-20T04:59:18.135Z,102202.81
2023-05-20T05:01:44.940Z,102194.69
2023-05-20T05:04:11.753Z,102200.63
2023-05-20T05:06:38.552Z,102194.41
2023-05-20T05:09:05.390Z,102202.94
2023-05-20T05:11:32.069Z,102195.09
2023-05-20T05:13:58.785Z,102189.69
2023-05-20T05:16:25.699Z,102204.06
2023-05-20T05:18:52.496Z,102195.34
2023-05-20T05:21:19.219Z,102184.28
2023-05-20T05:23:46.105Z,102185.63
2023-05-20T05:26:12.797Z,102181.13
2023-05-20T05:28:42.667Z,102187.94
2023-05-20T05:31:09.698Z,102190.00
2023-05-20T05:33:36.471Z,102188.47
2023-05-20T05:36:05.012Z,102184.53
2023-05-20T05:38:31.717Z,102180.19
2023-05-20T05:40:58.357Z,102186.03
2023-05-20T05:43:25.129Z,102178.00
2023-05-20T05:45:51.872Z,102163.41
2023-05-20T05:48:18.634Z,102189.97
2023-05-20T05:50:46.453Z,102189.16
2023-05-20T05:53:13.386Z,102191.66
2023-05-20T05:55:40.182Z,102198.38
2023-05-20T05:58:07.166Z,102186.44
2023-05-20T06:00:34.250Z,102184.47
2023-05-20T06:03:01.553Z,102199.78
2023-05-20T06:05:29.797Z,102194.22
2023-05-20T06:07:56.752Z,102199.78
2023-05-20T06:10:23.862Z,102186.72
2023-05-20T06:12:50.687Z,102199.41
2023-05-20T06:15:17.438Z,102186.00
2023-05-20T06:17:44.376Z,102165.34
2023-05-20T06:20:11.810Z,102186.81
2023-05-20T06:22:38.562Z,102189.94
2023-05-20T06:25:06.384Z,102188.94
2023-05-20T06:27:33.445Z,102177.03
2023-05-20T06:30:00.290Z,102183.97
2023-05-20T06:32:27.713Z,102186.16
2023-05-20T06:34:54.444Z,102183.31
2023-05-20T06:37:24.414Z,102172.38
2023-05-20T06:39:54.072Z,102169.91
2023-05-20T06:42:21.657Z,102180.41
2023-05-20T06:44:48.455Z,102172.19
2023-05-20T06:47:16.816Z,102169.44
2023-05-20T06:49:47.652Z,102174.09
2023-05-20T06:52:14.658Z,102178.34
2023-05-20T06:54:41.825Z,102173.75
2023-05-20T06:57:09.240Z,102178.50
2023-05-20T06:59:36.864Z,102167.97
2023-05-20T07:02:04.745Z,102178.00
2023-05-20T07:04:31.527Z,102166.22
2023-05-20T07:06:58.184Z,102178.28
2023-05-20T07:09:24.896Z,102178.41
2023-05-20T07:11:51.799Z,102183.72
2023-05-20T07:14:18.575Z,102178.25
2023-05-20T07:16:45.441Z,102182.53
2023-05-20T07:19:12.260Z,102181.44
2023-05-20T07:21:39.126Z,102182.53
2023-05-20T07:24:06.008Z,102192.16
2023-05-20T07:26:36.423Z,102187.09
2023-05-20T07:29:04.527Z,102192.31
2023-05-20T07:31:31.596Z,102182.47
2023-05-20T07:33:58.658Z,102172.56
2023-05-20T07:36:27.735Z,102174.19
2023-05-20T07:39:02.460Z,102170.19
2023-05-20T07:41:32.121Z,102181.22
2023-05-20T07:43:58.784Z,102165.94
2023-05-20T07:46:25.566Z,102167.81
2023-05-20T07:48:52.382Z,102170.56
2023-05-20T07:51:19.138Z,102165.25
2023-05-20T07:53:45.895Z,102163.38
2023-05-20T07:56:12.669Z,102172.31
2023-05-20T07:58:42.697Z,102174.78
2023-05-20T08:01:10.299Z,102180.91
2023-05-20T08:03:37.113Z,102188.38
2023-05-20T08:06:04.180Z,102178.16
2023-05-20T08:08:30.896Z,102184.53
2023-05-20T08:10:57.575Z,102189.31
2023-05-20T08:13:25.644Z,102189.94
2023-05-20T08:15:54.772Z,102164.31
2023-05-20T08:18:21.553Z,102188.06
2023-05-20T08:20:48.573Z,102191.09
2023-05-20T08:23:15.241Z,102189.31
2023-05-20T08:25:41.948Z,102182.19
2023-05-20T08:28:08.840Z,102181.25
2023-05-20T08:30:35.551Z,102179.56
2023-05-20T08:33:02.577Z,102165.25
2023-05-20T08:35:29.421Z,102168.84
2023-05-20T08:37:56.278Z,102178.22
2023-05-20T08:40:23.096Z,102164.09
2023-05-20T08:42:53.002Z,102173.19
2023-05-20T08:45:21.750Z,102176.88
2023-05-20T08:47:48.591Z,102167.91
2023-05-20T08:50:17.113Z,102174.78
2023-05-20T08:52:46.439Z,102174.03
2023-05-20T08:55:23.029Z,102167.41
2023-05-20T08:57:51.496Z,102182.22
2023-05-20T09:00:20.168Z,102180.19
2023-05-20T09:02:47.431Z,102168.63
2023-05-20T09:05:14.768Z,102173.53
2023-05-20T09:07:43.328Z,102177.75
2023-05-20T09:10:10.917Z,102179.63
2023-05-20T09:12:38.742Z,102177.66
2023-05-20T09:15:05.898Z,102177.09
2023-05-20T09:17:37.313Z,102183.22
2023-05-20T09:20:09.141Z,102185.03
2023-05-20T09:22:35.846Z,102179.59
2023-05-20T09:25:02.627Z,102183.91
2023-05-20T09:27:29.300Z,102185.78
2023-05-20T09:29:55.947Z,102174.69
2023-05-20T09:32:28.473Z,102179.47
2023-05-20T09:34:55.265Z,102171.22
2023-05-20T09:37:22.734Z,102173.03
2023-05-20T09:39:59.728Z,102172.63
2023-05-20T09:42:42.456Z,102174.59
2023-05-20T09:45:09.651Z,102166.59
2023-05-20T09:47:42.695Z,102156.06
2023-05-20T09:50:10.358Z,102154.19
2023-05-20T09:52:38.749Z,102150.72
2023-05-20T09:55:10.551Z,102148.69
2023-05-20T09:57:38.093Z,102149.06
2023-05-20T10:00:06.446Z,102146.16
2023-05-20T10:02:36.707Z,102132.25
2023-05-20T10:05:08.015Z,102138.72
2023-05-20T10:07:44.171Z,102139.84
2023-05-20T10:10:20.488Z,102132.69
2023-05-20T10:13:03.652Z,102134.22
2023-05-20T10:16:08.921Z,102145.75
2023-05-20T10:18:50.842Z,102136.44
2023-05-20T10:21:19.268Z,102135.16
2023-05-20T10:23:46.098Z,102118.31
2023-05-20T10:26:12.844Z,102123.56
2023-05-20T10:28:41.790Z,102130.59
2023-05-20T10:31:21.794Z,102123.06
2023-05-20T10:33:49.734Z,102124.00
2023-05-20T10:36:30.825Z,102125.31
2023-05-20T10:39:00.840Z,102129.56
2023-05-20T10:41:44.672Z,102123.41
2023-05-20T10:44:11.752Z,102115.75
2023-05-20T10:46:59.940Z,102101.56
2023-05-20T10:49:34.717Z,102110.34
2023-05-20T10:52:01.505Z,102110.34
2023-05-20T10:54:29.502Z,102106.72
2023-05-20T10:56:56.442Z,102094.69
2023-05-20T10:59:23.393Z,102105.56
2023-05-20T11:01:51.186Z,102102.34
2023-05-20T11:04:19.963Z,102099.56
2023-05-20T11:06:54.316Z,102076.97
2023-05-20T11:09:22.377Z,102106.91
2023-05-20T11:11:54.446Z,102093.94
2023-05-20T11:14:22.200Z,102089.69
2023-05-20T11:16:53.607Z,102095.84
2023-05-20T11:19:21.587Z,102086.19
2023-05-20T11:21:49.214Z,102093.19
2023-05-20T11:24:27.056Z,102094.50
2023-05-20T11:26:57.588Z,102080.88
2023-05-20T11:29:26.884Z,102076.03
2023-05-20T11:31:53.759Z,102078.19
2023-05-20T11:34:25.979Z,102067.44
2023-05-20T11:36:57.483Z,102080.34
2023-05-20T11:39:27.610Z,102082.28
2023-05-20T11:41:54.458Z,102079.78
2023-05-20T11:44:21.618Z,102084.91
2023-05-20T11:46:48.714Z,102089.00
2023-05-20T11:49:16.782Z,102085.81
2023-05-20T11:51:44.416Z,102084.47
2023-05-20T11:54:11.452Z,102071.78
2023-05-20T11:56:39.244Z,102072.84
2023-05-20T11:59:07.230Z,102073.19
2023-05-20T12:01:43.532Z,102071.91
2023-05-20T12:04:12.106Z,102068.19
2023-05-20T12:06:39.828Z,102075.69
2023-05-20T12:09:08.630Z,102074.94
2023-05-20T12:11:37.460Z,102081.56
2023-05-20T12:14:04.713Z,102068.69
2023-05-20T12:16:33.604Z,102063.47
2023-05-20T12:19:01.299Z,102058.88
2023-05-20T12:21:31.618Z,102060.94
2023-05-20T12:24:01.846Z,102056.72
2023-05-20T12:26:29.856Z,102057.72
2023-05-20T12:28:57.719Z,102045.03
2023-05-20T12:31:25.394Z,102046.97
2023-05-20T12:33:52.332Z,102039.69
2023-05-20T12:36:19.876Z,102024.97
2023-05-20T12:38:47.202Z,102038.66
2023-05-20T12:41:14.153Z,102020.75
2023-05-20T12:43:40.873Z,102019.13
2023-05-20T12:46:07.677Z,102024.25
2023-05-20T12:48:34.425Z,102019.50
2023-05-20T12:51:01.569Z,102025.50
2023-05-20T12:53:31.966Z,102022.03
2023-05-20T12:55:58.798Z,102015.66
2023-05-20T12:58:25.462Z,102019.50
2023-05-20T13:00:52.335Z,102024.69
2023-05-20T13:03:19.297Z,102032.66
2023-05-20T13:05:46.241Z,102029.28
2023-05-20T13:08:14.997Z,102038.47
2023-05-20T13:10:42.345Z,102020.22
2023-05-20T13:13:09.163Z,102010.94
2023-05-20T13:15:36.972Z,102017.06
2023-05-20T13:18:06.066Z,102016.28
2023-05-20T13:20:33.041Z,102026.47
2023-05-20T13:22:59.947Z,102018.06
2023-05-20T13:25:26.789Z,102023.94
2023-05-20T13:27:53.465Z,102025.63
2023-05-20T13:30:20.278Z,102011.91
2023-05-20T13:32:47.045Z,102026.88
2023-05-20T13:35:14.742Z,102024.59
2023-05-20T13:37:41.742Z,102013.66
2023-05-20T13:40:09.362Z,102026.34
2023-05-20T13:42:36.171Z,102012.94
2023-05-20T13:45:03.002Z,102013.94
2023-05-20T13:47:29.821Z,102021.00
2023-05-20T13:49:56.931Z,102021.00
2023-05-20T13:52:23.761Z,102014.94
2023-05-20T13:54:50.478Z,102013.84
2023-05-20T13:57:17.310Z,102014.28
2023-05-20T13:59:44.440Z,102005.06
2023-05-20T14:02:11.673Z,101995.78
2023-05-20T14:04:40.278Z,101990.22
2023-05-20T14:07:09.618Z,101987.72
2023-05-20T14:09:36.858Z,101971.25
2023-05-20T14:12:04.220Z,101968.69
2023-05-20T14:14:31.043Z,101963.03
2023-05-20T14:16:58.013Z,101969.47
2023-05-20T14:19:25.090Z,101969.50
2023-05-20T14:21:51.916Z,101967.75
2023-05-20T14:24:18.567Z,101972.41
2023-05-20T14:26:45.239Z,101956.19
2023-05-20T14:29:12.026Z,101950.16
2023-05-20T14:31:39.394Z,101940.72
2023-05-20T14:34:07.397Z,101971.91
2023-05-20T14:36:34.397Z,101958.94
2023-05-20T14:39:01.080Z,101967.44
2023-05-20T14:41:27.796Z,101949.28
2023-05-20T14:43:54.560Z,101950.47
2023-05-20T14:46:21.733Z,101941.06
2023-05-20T14:48:48.429Z,101942.22
2023-05-20T14:51:15.179Z,101941.28
2023-05-20T14:53:42.279Z,101937.59
2023-05-20T14:56:08.972Z,101952.47
2023-05-20T14:58:36.099Z,101944.25
2023-05-20T15:01:02.901Z,101938.19
2023-05-20T15:03:30.042Z,101929.81
2023-05-20T15:05:56.921Z,101933.97
2023-05-20T15:08:23.593Z,101933.00
2023-05-20T15:10:50.797Z,101929.00
2023-05-20T15:13:17.574Z,101924.13
2023-05-20T15:15:44.896Z,101912.03
2023-05-20T15:18:11.796Z,101912.19
2023-05-20T15:20:38.565Z,101915.34
2023-05-20T15:23:05.428Z,101909.44
2023-05-20T15:25:32.129Z,101909.47
2023-05-20T15:27:58.864Z,101901.56
2023-05-20T15:30:25.674Z,101908.19
2023-05-20T15:32:52.447Z,101901.44
2023-05-20T15:35:19.653Z,101893.16
2023-05-20T15:37:46.333Z,101888.84
2023-05-20T15:40:13.112Z,101887.63
2023-05-20T15:42:39.842Z,101894.00
2023-05-20T15:45:07.415Z,101892.09
2023-05-20T15:47:34.307Z,101897.91
2023-05-20T15:50:02.964Z,101904.25
2023-05-20T15:52:29.692Z,101895.97
2023-05-20T15:54:56.828Z,101893.31
2023-05-20T15:57:23.590Z,101902.03
2023-05-20T15:59:50.265Z,101899.72
2023-05-20T16:02:17.045Z,101900.13
2023-05-20T16:04:43.780Z,101893.94
2023-05-20T16:07:10.657Z,101895.22
2023-05-20T16:09:37.354Z,101886.50
2023-05-20T16:12:04.674Z,101882.09
2023-05-20T16:14:31.337Z,101879.13
2023-05-20T16:16:58.108Z,101870.63
2023-05-20T16:19:24.911Z,101867.38
2023-05-20T16:21:51.682Z,101871.72
2023-05-20T16:24:18.459Z,101880.31
2023-05-20T16:26:45.268Z,101874.22
2023-05-20T16:29:12.078Z,101874.34
2023-05-20T16:31:39.551Z,101873.25
2023-05-20T16:34:07.288Z,101867.56
2023-05-20T16:36:34.729Z,101872.59
2023-05-20T16:39:01.637Z,101858.00
2023-05-20T16:41:28.486Z,101863.88
2023-05-20T16:43:55.144Z,101864.47
2023-05-20T16:46:22.023Z,101868.34
2023-05-20T16:48:48.786Z,101887.00
2023-05-20T16:51:15.470Z,101877.72
2023-05-20T16:53:42.273Z,101869.66
2023-05-20T16:56:09.144Z,101864.31
2023-05-20T16:58:35.855Z,101865.38
2023-05-20T17:01:02.676Z,101867.50
2023-05-20T17:03:29.427Z,101861.06
2023-05-20T17:05:56.150Z,101867.81
2023-05-20T17:08:23.018Z,101864.63
2023-05-20T17:10:51.351Z,101868.66
2023-05-20T17:13:19.972Z,101860.63
2023-05-20T17:15:46.677Z,101857.13
2023-05-20T17:18:13.513Z,101844.25
2023-05-20T17:20:40.266Z,101838.81
2023-05-20T17:23:07.063Z,101842.19
2023-05-20T17:25:33.864Z,101847.41
2023-05-20T17:28:00.661Z,101843.44
2023-05-20T17:30:27.469Z,101845.56
2023-05-20T17:32:55.117Z,101849.66
2023-05-20T17:35:25.567Z,101849.75
2023-05-20T17:37:53.651Z,101856.22
2023-05-20T17:40:20.967Z,101858.34
2023-05-20T17:42:50.315Z,101852.84
2023-05-20T17:45:17.097Z,101853.56
2023-05-20T17:47:43.848Z,101847.66
2023-05-20T17:50:11.193Z,101853.94
2023-05-20T17:52:37.938Z,101854.66
2023-05-20T17:55:05.031Z,101851.75
2023-05-20T17:57:31.742Z,101863.94
2023-05-20T17:59:58.425Z,101842.81
2023-05-20T18:02:25.224Z,101862.34
2023-05-20T18:04:52.359Z,101859.81
2023-05-20T18:07:19.205Z,101855.22
2023-05-20T18:09:46.072Z,101846.72
2023-05-20T18:12:12.770Z,101850.84
2023-05-20T18:14:39.503Z,101847.25
2023-05-20T18:17:06.227Z,101846.56
2023-05-20T18:19:33.890Z,101847.72
2023-05-20T18:22:01.156Z,101839.78
2023-05-20T18:24:27.840Z,101852.84
2023-05-20T18:26:54.545Z,101854.66
2023-05-20T18:29:23.400Z,101853.81
2023-05-20T18:31:50.286Z,101839.88
2023-05-20T18:34:17.022Z,101846.63
2023-05-20T18:36:43.805Z,101845.03
2023-05-20T18:39:14.097Z,101846.56
2023-05-20T18:44:13.508Z,101854.50
2023-05-20T18:46:40.264Z,101816.34
2023-05-20T18:49:06.947Z,101857.50
2023-05-20T18:51:33.922Z,101864.41
2023-05-20T18:54:00.700Z,101858.41
2023-05-20T18:56:27.642Z,101849.69
2023-05-20T18:58:54.463Z,101844.53
2023-05-20T19:01:22.041Z,101816.81
2023-05-20T19:03:48.754Z,101838.25
2023-05-20T19:06:16.612Z,101829.38
2023-05-20T19:08:43.992Z,101834.59
2023-05-20T19:11:11.113Z,101831.28
2023-05-20T19:13:37.881Z,101825.25
2023-05-20T19:16:04.812Z,101822.94
2023-05-20T19:18:31.626Z,101826.38
2023-05-20T19:20:58.316Z,101825.81
2023-05-20T19:23:25.009Z,101817.66
2023-05-20T19:25:51.736Z,101829.19
2023-05-20T19:28:18.685Z,101836.50
2023-05-20T19:30:45.664Z,101830.41
2023-05-20T19:33:12.446Z,101825.59
2023-05-20T19:35:40.426Z,101828.91
2023-05-20T19:38:07.370Z,101819.25
2023-05-20T19:40:35.360Z,101812.06
2023-05-20T19:43:04.953Z,101821.00
2023-05-20T19:45:34.736Z,101826.38
2023-05-20T19:48:02.585Z,101828.13
2023-05-20T19:50:29.386Z,101817.63
2023-05-20T19:52:56.319Z,101814.19
2023-05-20T19:55:23.122Z,101827.09
2023-05-20T19:57:53.410Z,101800.72
2023-05-20T20:00:23.549Z,101813.56
2023-05-20T20:02:50.407Z,101824.59
2023-05-20T20:05:17.309Z,101834.34
2023-05-20T20:07:44.032Z,101833.91
2023-05-20T20:10:11.132Z,101828.91
2023-05-20T20:12:37.814Z,101834.34
2023-05-20T20:15:05.108Z,101825.13
2023-05-20T20:17:33.908Z,101819.44
2023-05-20T20:20:01.193Z,101828.88
2023-05-20T20:22:28.089Z,101841.56
2023-05-20T20:24:54.851Z,101838.91
2023-05-20T20:27:23.804Z,101839.13
2023-05-20T20:29:50.733Z,101838.28
2023-05-20T20:32:17.527Z,101847.25
2023-05-20T20:34:45.984Z,101836.81
2023-05-20T20:37:15.069Z,101840.63
2023-05-20T20:39:42.209Z,101823.84
2023-05-20T20:42:09.002Z,101842.97
2023-05-20T20:44:35.764Z,101827.47
2023-05-20T20:47:04.261Z,101834.06
2023-05-20T20:49:32.279Z,101845.00
2023-05-20T20:51:59.226Z,101849.06
2023-05-20T20:54:26.551Z,101843.94
2023-05-20T20:56:56.758Z,101837.50
2023-05-20T20:59:26.757Z,101841.22
2023-05-20T21:01:54.186Z,101840.19
2023-05-20T21:04:21.085Z,101836.38
2023-05-20T21:06:47.918Z,101833.91
2023-05-20T21:09:15.132Z,101840.28
2023-05-20T21:11:42.406Z,101840.03
2023-05-20T21:14:10.338Z,101835.75
2023-05-20T21:16:37.882Z,101833.41
2023-05-20T21:19:05.104Z,101818.00
2023-05-20T21:21:32.467Z,101829.53
2023-05-20T21:23:59.253Z,101823.09
2023-05-20T21:26:26.672Z,101824.56
2023-05-20T21:28:53.491Z,101828.88
2023-05-20T21:31:20.324Z,101819.78
2023-05-20T21:33:47.196Z,101832.03
2023-05-20T21:36:13.949Z,101819.91
2023-05-20T21:38:40.635Z,101824.94
2023-05-20T21:41:07.940Z,101832.88
2023-05-20T21:43:36.089Z,101830.94
2023-05-20T21:46:03.253Z,101812.63
2023-05-20T21:48:29.989Z,101827.50
2023-05-20T21:50:56.745Z,101824.94
2023-05-20T21:53:23.391Z,101819.31
2023-05-20T21:55:50.160Z,101823.34
2023-05-20T21:58:16.898Z,101822.44
2023-05-20T22:00:43.624Z,101815.50
2023-05-20T22:03:11.940Z,101823.69
2023-05-20T22:05:38.782Z,101818.13
2023-05-20T22:08:05.796Z,101812.88
2023-05-20T22:10:34.210Z,101815.19
2023-05-20T22:13:02.243Z,101819.53
2023-05-20T22:15:29.170Z,101812.22
2023-05-20T22:17:55.979Z,101810.78
2023-05-20T22:20:22.891Z,101813.66
2023-05-20T22:22:49.635Z,101805.69
2023-05-20T22:25:17.407Z,101805.50
2023-05-20T22:27:44.207Z,101812.34
2023-05-20T22:30:12.369Z,101807.94
2023-05-20T22:32:39.393Z,101807.84
2023-05-20T22:35:06.860Z,101812.09
2023-05-20T22:37:33.635Z,101806.50
2023-05-20T22:40:00.681Z,101797.56
2023-05-20T22:42:27.427Z,101801.03
2023-05-20T22:44:54.078Z,101800.78
2023-05-20T22:47:20.784Z,101802.44
2023-05-20T22:49:47.514Z,101798.31
2023-05-20T22:52:14.573Z,101787.22
2023-05-20T22:54:41.331Z,101788.00
2023-05-20T22:57:08.426Z,101786.66
2023-05-20T22:59:36.692Z,101792.13
2023-05-20T23:02:04.540Z,101791.50
2023-05-20T23:04:31.379Z,101784.28
2023-05-20T23:06:59.451Z,101790.63
2023-05-20T23:09:26.533Z,101795.25
2023-05-20T23:11:53.352Z,101780.91
2023-05-20T23:14:20.259Z,101791.34
2023-05-20T23:16:47.324Z,101785.13
2023-05-20T23:19:14.307Z,101780.03
2023-05-20T23:21:41.139Z,101785.03
2023-05-20T23:24:07.865Z,101774.47
2023-05-20T23:26:34.666Z,101791.66
2023-05-20T23:29:01.637Z,101789.25
2023-05-20T23:31:29.991Z,101785.59
2023-05-20T23:33:59.903Z,101782.28
2023-05-20T23:36:29.170Z,101781.19
2023-05-20T23:38:56.492Z,101788.81
2023-05-20T23:41:23.818Z,101790.19
2023-05-20T23:43:50.875Z,101783.97
2023-05-20T23:46:18.712Z,101790.66
2023-05-20T23:48:48.359Z,101768.41
2023-05-20T23:51:16.447Z,101784.19
2023-05-20T23:53:43.865Z,101792.09
2023-05-20T23:56:10.667Z,101788.56
2023-05-20T23:58:37.442Z,101786.72
